sensor_id;sensor_type;location;lat;lon;timestamp;pressure;altitude;pressure_sealevel;temperature;humidity
19236;BME280;9752;54.270;12.470;2022-08-05T00:03:50;101210.22;;;18.56;100.00
19236;BME280;9752;54.270;12.470;2022-08-05T00:08:52;101226.84;;;18.56;100.00
19236;BME280;9752;54.270;12.470;2022-08-05T00:13:55;101231.91;;;18.50;100.00
19236;BME280;9752;54.270;12.470;2022-08-05T00:18:57;101247.00;;;18.57;100.00
19236;BME280;9752;54.270;12.470;2022-08-05T00:23:59;101250.44;;;18.54;100.00
19236;BME280;9752;54.270;12.470;2022-08-05T00:29:02;101262.84;;;18.59;100.00
19236;BME280;9752;54.270;12.470;2022-08-05T00:34:04;101275.34;;;18.66;100.00
19236;BME280;9752;54.270;12.470;2022-08-05T00:39:06;101272.19;;;18.76;100.00
19236;BME280;9752;54.270;12.470;2022-08-05T00:44:10;101297.69;;;18.79;100.00
19236;BME280;9752;54.270;12.470;2022-08-05T00:49:12;101304.19;;;18.88;100.00
19236;BME280;9752;54.270;12.470;2022-08-05T00:54:14;101284.38;;;18.98;100.00
19236;BME280;9752;54.270;12.470;2022-08-05T00:59:17;101274.59;;;18.94;100.00
19236;BME280;9752;54.270;12.470;2022-08-05T01:04:19;101282.28;;;18.88;100.00
19236;BME280;9752;54.270;12.470;2022-08-05T01:09:21;101263.22;;;18.95;100.00
19236;BME280;9752;54.270;12.470;2022-08-05T01:14:26;101255.34;;;18.95;100.00
19236;BME280;9752;54.270;12.470;2022-08-05T01:19:34;101243.31;;;19.02;100.00
19236;BME280;9752;54.270;12.470;2022-08-05T01:25:02;101250.38;;;19.04;100.00
19236;BME280;9752;54.270;12.470;2022-08-05T01:30:10;101260.78;;;19.00;100.00
19236;BME280;9752;54.270;12.470;2022-08-05T01:35:15;101272.38;;;19.06;100.00
19236;BME280;9752;54.270;12.470;2022-08-05T01:40:19;101275.16;;;19.11;100.00
19236;BME280;9752;54.270;12.470;2022-08-05T01:45:24;101272.66;;;19.16;100.00
19236;BME280;9752;54.270;12.470;2022-08-05T01:50:28;101259.75;;;19.22;100.00
19236;BME280;9752;54.270;12.470;2022-08-05T01:55:32;101252.94;;;19.28;100.00
19236;BME280;9752;54.270;12.470;2022-08-05T02:00:38;101253.81;;;19.29;100.00
19236;BME280;9752;54.270;12.470;2022-08-05T02:05:43;101252.22;;;19.34;100.00
19236;BME280;9752;54.270;12.470;2022-08-05T02:10:49;101235.63;;;19.35;100.00
19236;BME280;9752;54.270;12.470;2022-08-05T02:15:58;101230.50;;;19.40;100.00
19236;BME280;9752;54.270;12.470;2022-08-05T02:21:06;101231.31;;;19.37;100.00
19236;BME280;9752;54.270;12.470;2022-08-05T02:26:12;101220.78;;;19.37;100.00
19236;BME280;9752;54.270;12.470;2022-08-05T02:31:21;101189.16;;;19.36;100.00
19236;BME280;9752;54.270;12.470;2022-08-05T02:36:25;101194.31;;;19.33;100.00
19236;BME280;9752;54.270;12.470;2022-08-05T02:41:28;101186.19;;;19.25;100.00
19236;BME280;9752;54.270;12.470;2022-08-05T02:46:34;101196.88;;;19.31;100.00
19236;BME280;9752;54.270;12.470;2022-08-05T02:51:37;101179.22;;;19.27;100.00
19236;BME280;9752;54.270;12.470;2022-08-05T02:56:40;101169.00;;;19.36;100.00
19236;BME280;9752;54.270;12.470;2022-08-05T03:01:44;101162.00;;;19.37;100.00
19236;BME280;9752;54.270;12.470;2022-08-05T03:06:50;101146.91;;;19.31;100.00
19236;BME280;9752;54.270;12.470;2022-08-05T03:11:51;101135.47;;;19.29;100.00
19236;BME280;9752;54.270;12.470;2022-08-05T03:16:55;101115.41;;;19.33;100.00
19236;BME280;9752;54.270;12.470;2022-08-05T03:21:56;101105.59;;;19.27;100.00
19236;BME280;9752;54.270;12.470;2022-08-05T03:26:58;101098.50;;;19.24;100.00
19236;BME280;9752;54.270;12.470;2022-08-05T03:32:02;101071.22;;;19.21;100.00
19236;BME280;9752;54.270;12.470;2022-08-05T03:37:05;101067.63;;;19.17;100.00
19236;BME280;9752;54.270;12.470;2022-08-05T03:42:07;101074.75;;;19.21;100.00
19236;BME280;9752;54.270;12.470;2022-08-05T03:47:10;101069.59;;;19.24;100.00
19236;BME280;9752;54.270;12.470;2022-08-05T03:52:17;101073.09;;;19.25;100.00
19236;BME280;9752;54.270;12.470;2022-08-05T03:57:23;101061.66;;;19.23;100.00
19236;BME280;9752;54.270;12.470;2022-08-05T04:02:29;101061.97;;;19.03;100.00
19236;BME280;9752;54.270;12.470;2022-08-05T04:07:33;101070.59;;;18.99;100.00
19236;BME280;9752;54.270;12.470;2022-08-05T04:12:36;101046.00;;;18.97;100.00
19236;BME280;9752;54.270;12.470;2022-08-05T04:17:39;101056.47;;;18.96;100.00
19236;BME280;9752;54.270;12.470;2022-08-05T04:22:41;101055.00;;;19.05;100.00
19236;BME280;9752;54.270;12.470;2022-08-05T04:27:43;101050.72;;;19.09;100.00
19236;BME280;9752;54.270;12.470;2022-08-05T04:32:46;101053.41;;;19.10;100.00
19236;BME280;9752;54.270;12.470;2022-08-05T04:37:47;101056.94;;;19.11;100.00
19236;BME280;9752;54.270;12.470;2022-08-05T04:42:49;101087.09;;;19.24;100.00
19236;BME280;9752;54.270;12.470;2022-08-05T04:47:52;101129.72;;;19.42;100.00
19236;BME280;9752;54.270;12.470;2022-08-05T04:52:54;101158.41;;;19.33;100.00
19236;BME280;9752;54.270;12.470;2022-08-05T04:57:56;101164.59;;;19.35;100.00
19236;BME280;9752;54.270;12.470;2022-08-05T05:02:59;101133.75;;;19.31;100.00
19236;BME280;9752;54.270;12.470;2022-08-05T05:08:02;101140.94;;;19.35;100.00
19236;BME280;9752;54.270;12.470;2022-08-05T05:13:04;101140.34;;;19.45;100.00
19236;BME280;9752;54.270;12.470;2022-08-05T05:18:08;101158.09;;;19.53;100.00
19236;BME280;9752;54.270;12.470;2022-08-05T05:23:10;101152.59;;;19.45;100.00
19236;BME280;9752;54.270;12.470;2022-08-05T05:28:12;101154.59;;;19.54;100.00
19236;BME280;9752;54.270;12.470;2022-08-05T05:33:15;101143.31;;;19.58;100.00
19236;BME280;9752;54.270;12.470;2022-08-05T05:38:17;101145.81;;;19.53;100.00
19236;BME280;9752;54.270;12.470;2022-08-05T05:43:19;101132.66;;;19.53;100.00
19236;BME280;9752;54.270;12.470;2022-08-05T05:48:23;101138.63;;;19.47;100.00
19236;BME280;9752;54.270;12.470;2022-08-05T05:53:25;101168.94;;;19.35;100.00
19236;BME280;9752;54.270;12.470;2022-08-05T05:58:27;101198.63;;;19.30;100.00
19236;BME280;9752;54.270;12.470;2022-08-05T06:03:30;101192.66;;;19.36;100.00
19236;BME280;9752;54.270;12.470;2022-08-05T06:08:32;101177.41;;;19.24;100.00
19236;BME280;9752;54.270;12.470;2022-08-05T06:13:34;101174.38;;;19.10;100.00
19236;BME280;9752;54.270;12.470;2022-08-05T06:18:37;101164.31;;;18.99;100.00
19236;BME280;9752;54.270;12.470;2022-08-05T06:23:39;101192.41;;;19.00;100.00
19236;BME280;9752;54.270;12.470;2022-08-05T06:28:41;101226.53;;;18.98;100.00
19236;BME280;9752;54.270;12.470;2022-08-05T06:33:44;101231.91;;;19.01;100.00
19236;BME280;9752;54.270;12.470;2022-08-05T06:38:46;101240.69;;;19.02;100.00
19236;BME280;9752;54.270;12.470;2022-08-05T06:43:49;101261.81;;;19.05;100.00
19236;BME280;9752;54.270;12.470;2022-08-05T06:48:52;101251.50;;;19.11;100.00
19236;BME280;9752;54.270;12.470;2022-08-05T06:53:55;101248.19;;;19.17;100.00
19236;BME280;9752;54.270;12.470;2022-08-05T06:58:57;101226.28;;;19.18;100.00
19236;BME280;9752;54.270;12.470;2022-08-05T07:04:00;101219.38;;;19.21;100.00
19236;BME280;9752;54.270;12.470;2022-08-05T07:09:03;101236.59;;;19.39;100.00
19236;BME280;9752;54.270;12.470;2022-08-05T07:14:04;101266.50;;;19.42;100.00
19236;BME280;9752;54.270;12.470;2022-08-05T07:19:25;101272.00;;;19.48;100.00
19236;BME280;9752;54.270;12.470;2022-08-05T07:24:28;101269.34;;;19.76;100.00
19236;BME280;9752;54.270;12.470;2022-08-05T07:29:30;101276.09;;;19.69;100.00
19236;BME280;9752;54.270;12.470;2022-08-05T07:34:33;101290.72;;;19.59;100.00
19236;BME280;9752;54.270;12.470;2022-08-05T07:39:35;101287.56;;;19.69;100.00
19236;BME280;9752;54.270;12.470;2022-08-05T07:44:37;101288.06;;;19.85;100.00
19236;BME280;9752;54.270;12.470;2022-08-05T07:49:40;101283.00;;;19.93;100.00
19236;BME280;9752;54.270;12.470;2022-08-05T07:54:42;101278.84;;;20.01;100.00
19236;BME280;9752;54.270;12.470;2022-08-05T07:59:43;101267.69;;;19.79;100.00
19236;BME280;9752;54.270;12.470;2022-08-05T08:04:47;101275.28;;;19.70;100.00
19236;BME280;9752;54.270;12.470;2022-08-05T08:09:50;101283.44;;;19.23;100.00
19236;BME280;9752;54.270;12.470;2022-08-05T08:14:52;101280.00;;;18.99;100.00
19236;BME280;9752;54.270;12.470;2022-08-05T08:19:55;101277.13;;;18.91;100.00
19236;BME280;9752;54.270;12.470;2022-08-05T08:24:57;101285.53;;;18.81;100.00
19236;BME280;9752;54.270;12.470;2022-08-05T08:29:58;101283.13;;;19.13;100.00
19236;BME280;9752;54.270;12.470;2022-08-05T08:35:02;101276.00;;;19.10;100.00
19236;BME280;9752;54.270;12.470;2022-08-05T08:40:05;101278.44;;;19.31;100.00
19236;BME280;9752;54.270;12.470;2022-08-05T08:45:08;101299.56;;;19.07;100.00
19236;BME280;9752;54.270;12.470;2022-08-05T08:50:12;101285.88;;;19.17;100.00
19236;BME280;9752;54.270;12.470;2022-08-05T08:55:14;101289.38;;;19.16;100.00
19236;BME280;9752;54.270;12.470;2022-08-05T09:00:16;101276.16;;;19.42;100.00
19236;BME280;9752;54.270;12.470;2022-08-05T09:05:20;101284.72;;;19.63;100.00
19236;BME280;9752;54.270;12.470;2022-08-05T09:10:22;101285.53;;;19.89;100.00
19236;BME280;9752;54.270;12.470;2022-08-05T09:15:24;101271.88;;;19.73;100.00
19236;BME280;9752;54.270;12.470;2022-08-05T09:20:27;101289.53;;;19.49;100.00
19236;BME280;9752;54.270;12.470;2022-08-05T09:25:29;101308.41;;;19.36;100.00
19236;BME280;9752;54.270;12.470;2022-08-05T09:30:32;101298.88;;;20.26;100.00
19236;BME280;9752;54.270;12.470;2022-08-05T09:35:35;101290.00;;;20.54;100.00
19236;BME280;9752;54.270;12.470;2022-08-05T09:40:39;101301.44;;;20.53;100.00
19236;BME280;9752;54.270;12.470;2022-08-05T09:45:43;101307.94;;;20.34;100.00
19236;BME280;9752;54.270;12.470;2022-08-05T09:50:49;101315.44;;;19.92;100.00
19236;BME280;9752;54.270;12.470;2022-08-05T09:55:53;101320.34;;;19.79;100.00
19236;BME280;9752;54.270;12.470;2022-08-05T10:00:58;101326.31;;;19.74;100.00
19236;BME280;9752;54.270;12.470;2022-08-05T10:06:04;101328.94;;;19.46;100.00
19236;BME280;9752;54.270;12.470;2022-08-05T10:11:13;101348.53;;;19.03;100.00
19236;BME280;9752;54.270;12.470;2022-08-05T10:16:30;101352.84;;;19.01;100.00
19236;BME280;9752;54.270;12.470;2022-08-05T10:21:33;101339.06;;;18.83;100.00
19236;BME280;9752;54.270;12.470;2022-08-05T10:26:35;101330.25;;;18.34;100.00
19236;BME280;9752;54.270;12.470;2022-08-05T10:31:37;101337.66;;;18.44;100.00
19236;BME280;9752;54.270;12.470;2022-08-05T10:36:40;101345.63;;;18.23;100.00
19236;BME280;9752;54.270;12.470;2022-08-05T10:41:48;101323.06;;;18.06;100.00
19236;BME280;9752;54.270;12.470;2022-08-05T10:46:55;101329.69;;;17.96;100.00
19236;BME280;9752;54.270;12.470;2022-08-05T10:51:58;101314.53;;;17.89;100.00
19236;BME280;9752;54.270;12.470;2022-08-05T10:57:02;101310.13;;;17.88;100.00
19236;BME280;9752;54.270;12.470;2022-08-05T11:02:08;101326.06;;;17.71;100.00
19236;BME280;9752;54.270;12.470;2022-08-05T11:07:13;101308.66;;;17.73;100.00
19236;BME280;9752;54.270;12.470;2022-08-05T11:12:42;101302.16;;;17.64;100.00
19236;BME280;9752;54.270;12.470;2022-08-05T11:17:45;101306.09;;;17.75;100.00
19236;BME280;9752;54.270;12.470;2022-08-05T11:22:49;101316.75;;;18.01;100.00
19236;BME280;9752;54.270;12.470;2022-08-05T11:27:51;101322.06;;;17.81;100.00
19236;BME280;9752;54.270;12.470;2022-08-05T11:33:23;101329.41;;;17.88;100.00
19236;BME280;9752;54.270;12.470;2022-08-05T11:38:50;101340.63;;;18.07;100.00
19236;BME280;9752;54.270;12.470;2022-08-05T11:43:56;101344.19;;;18.09;100.00
19236;BME280;9752;54.270;12.470;2022-08-05T11:49:02;101342.25;;;18.51;100.00
19236;BME280;9752;54.270;12.470;2022-08-05T11:54:06;101351.56;;;18.66;100.00
19236;BME280;9752;54.270;12.470;2022-08-05T11:59:11;101360.00;;;18.33;100.00
19236;BME280;9752;54.270;12.470;2022-08-05T12:04:13;101369.84;;;18.39;100.00
19236;BME280;9752;54.270;12.470;2022-08-05T12:09:22;101371.13;;;18.50;100.00
19236;BME280;9752;54.270;12.470;2022-08-05T12:14:34;101362.50;;;19.28;100.00
19236;BME280;9752;54.270;12.470;2022-08-05T12:19:40;101366.56;;;19.18;100.00
19236;BME280;9752;54.270;12.470;2022-08-05T12:24:45;101379.69;;;19.44;100.00
19236;BME280;9752;54.270;12.470;2022-08-05T12:29:58;101399.44;;;19.05;100.00
19236;BME280;9752;54.270;12.470;2022-08-05T12:35:01;101400.84;;;18.96;100.00
19236;BME280;9752;54.270;12.470;2022-08-05T12:40:08;101411.91;;;18.87;100.00
19236;BME280;9752;54.270;12.470;2022-08-05T12:45:11;101427.31;;;18.78;100.00
19236;BME280;9752;54.270;12.470;2022-08-05T12:50:14;101430.03;;;18.34;100.00
19236;BME280;9752;54.270;12.470;2022-08-05T12:55:20;101435.59;;;18.19;100.00
19236;BME280;9752;54.270;12.470;2022-08-05T13:00:24;101443.88;;;18.07;100.00
19236;BME280;9752;54.270;12.470;2022-08-05T13:05:26;101442.28;;;18.11;100.00
19236;BME280;9752;54.270;12.470;2022-08-05T13:10:30;101458.28;;;17.75;100.00
19236;BME280;9752;54.270;12.470;2022-08-05T13:15:32;101473.38;;;17.60;100.00
19236;BME280;9752;54.270;12.470;2022-08-05T13:20:34;101473.78;;;17.48;100.00
19236;BME280;9752;54.270;12.470;2022-08-05T13:25:38;101485.00;;;17.45;100.00
19236;BME280;9752;54.270;12.470;2022-08-05T13:30:39;101498.28;;;17.29;100.00
19236;BME280;9752;54.270;12.470;2022-08-05T13:35:41;101510.31;;;17.24;100.00
19236;BME280;9752;54.270;12.470;2022-08-05T13:40:44;101525.97;;;17.03;100.00
19236;BME280;9752;54.270;12.470;2022-08-05T13:45:46;101545.19;;;16.48;100.00
19236;BME280;9752;54.270;12.470;2022-08-05T13:50:48;101563.31;;;16.43;100.00
19236;BME280;9752;54.270;12.470;2022-08-05T13:55:51;101561.59;;;15.91;100.00
19236;BME280;9752;54.270;12.470;2022-08-05T14:00:53;101554.44;;;15.71;100.00
19236;BME280;9752;54.270;12.470;2022-08-05T14:05:55;101557.72;;;15.01;100.00
19236;BME280;9752;54.270;12.470;2022-08-05T14:10:58;101566.97;;;15.11;100.00
19236;BME280;9752;54.270;12.470;2022-08-05T14:16:00;101564.19;;;15.24;100.00
19236;BME280;9752;54.270;12.470;2022-08-05T14:21:01;101560.56;;;15.55;100.00
19236;BME280;9752;54.270;12.470;2022-08-05T14:26:05;101555.75;;;15.79;100.00
19236;BME280;9752;54.270;12.470;2022-08-05T14:31:07;101551.09;;;15.90;100.00
19236;BME280;9752;54.270;12.470;2022-08-05T14:36:09;101543.81;;;15.84;100.00
19236;BME280;9752;54.270;12.470;2022-08-05T14:41:12;101550.34;;;15.92;100.00
19236;BME280;9752;54.270;12.470;2022-08-05T14:46:14;101535.19;;;16.03;100.00
19236;BME280;9752;54.270;12.470;2022-08-05T14:51:15;101542.34;;;16.07;100.00
19236;BME280;9752;54.270;12.470;2022-08-05T14:56:19;101544.28;;;16.11;100.00
19236;BME280;9752;54.270;12.470;2022-08-05T15:01:20;101548.03;;;15.82;100.00
19236;BME280;9752;54.270;12.470;2022-08-05T15:06:22;101546.78;;;15.74;100.00
19236;BME280;9752;54.270;12.470;2022-08-05T15:11:26;101542.53;;;15.59;100.00
19236;BME280;9752;54.270;12.470;2022-08-05T15:16:28;101552.25;;;15.62;100.00
19236;BME280;9752;54.270;12.470;2022-08-05T15:21:30;101579.06;;;15.58;100.00
19236;BME280;9752;54.270;12.470;2022-08-05T15:26:33;101576.53;;;15.43;100.00
19236;BME280;9752;54.270;12.470;2022-08-05T15:31:35;101585.50;;;15.65;100.00
19236;BME280;9752;54.270;12.470;2022-08-05T15:36:36;101597.75;;;15.49;100.00
19236;BME280;9752;54.270;12.470;2022-08-05T15:41:40;101604.50;;;15.77;100.00
19236;BME280;9752;54.270;12.470;2022-08-05T15:46:41;101604.19;;;16.23;100.00
19236;BME280;9752;54.270;12.470;2022-08-05T15:51:43;101602.00;;;16.49;100.00
19236;BME280;9752;54.270;12.470;2022-08-05T15:56:48;101617.00;;;16.35;100.00
19236;BME280;9752;54.270;12.470;2022-08-05T16:01:50;101611.75;;;16.17;100.00
19236;BME280;9752;54.270;12.470;2022-08-05T16:06:52;101631.16;;;16.04;100.00
19236;BME280;9752;54.270;12.470;2022-08-05T16:11:55;101633.06;;;15.90;100.00
19236;BME280;9752;54.270;12.470;2022-08-05T16:16:57;101637.28;;;16.05;100.00
19236;BME280;9752;54.270;12.470;2022-08-05T16:21:59;101631.00;;;16.01;100.00
19236;BME280;9752;54.270;12.470;2022-08-05T16:27:04;101639.38;;;16.28;100.00
19236;BME280;9752;54.270;12.470;2022-08-05T16:32:06;101651.91;;;16.17;100.00
19236;BME280;9752;54.270;12.470;2022-08-05T16:37:08;101658.88;;;16.35;100.00
19236;BME280;9752;54.270;12.470;2022-08-05T16:42:11;101647.72;;;16.73;100.00
19236;BME280;9752;54.270;12.470;2022-08-05T16:47:13;101620.38;;;20.55;100.00
19236;BME280;9752;54.270;12.470;2022-08-05T16:52:15;101623.47;;;21.55;100.00
19236;BME280;9752;54.270;12.470;2022-08-05T16:57:18;101619.28;;;18.58;100.00
19236;BME280;9752;54.270;12.470;2022-08-05T17:02:23;101595.34;;;18.08;100.00
19236;BME280;9752;54.270;12.470;2022-08-05T17:07:25;101619.25;;;17.56;100.00
19236;BME280;9752;54.270;12.470;2022-08-05T17:12:28;101628.25;;;17.61;100.00
19236;BME280;9752;54.270;12.470;2022-08-05T17:17:30;101630.50;;;17.92;100.00
19236;BME280;9752;54.270;12.470;2022-08-05T17:22:34;101636.91;;;19.04;100.00
19236;BME280;9752;54.270;12.470;2022-08-05T17:27:37;101654.56;;;21.08;100.00
19236;BME280;9752;54.270;12.470;2022-08-05T17:32:39;101669.16;;;21.82;100.00
19236;BME280;9752;54.270;12.470;2022-08-05T17:37:42;101671.25;;;22.99;100.00
19236;BME280;9752;54.270;12.470;2022-08-05T17:42:45;101691.63;;;23.81;100.00
19236;BME280;9752;54.270;12.470;2022-08-05T17:47:47;101687.69;;;22.84;100.00
19236;BME280;9752;54.270;12.470;2022-08-05T17:52:49;101691.16;;;23.59;100.00
19236;BME280;9752;54.270;12.470;2022-08-05T17:57:53;101697.56;;;23.28;100.00
19236;BME280;9752;54.270;12.470;2022-08-05T18:02:55;101704.00;;;22.33;100.00
19236;BME280;9752;54.270;12.470;2022-08-05T18:07:56;101711.41;;;21.52;100.00
19236;BME280;9752;54.270;12.470;2022-08-05T18:13:00;101709.25;;;21.40;100.00
19236;BME280;9752;54.270;12.470;2022-08-05T18:18:02;101704.31;;;21.81;100.00
19236;BME280;9752;54.270;12.470;2022-08-05T18:23:04;101716.59;;;18.00;100.00
19236;BME280;9752;54.270;12.470;2022-08-05T18:28:07;101702.66;;;16.72;100.00
19236;BME280;9752;54.270;12.470;2022-08-05T18:33:09;101700.16;;;16.23;100.00
19236;BME280;9752;54.270;12.470;2022-08-05T18:38:11;101704.44;;;15.88;100.00
19236;BME280;9752;54.270;12.470;2022-08-05T18:43:14;101699.72;;;15.49;100.00
19236;BME280;9752;54.270;12.470;2022-08-05T18:48:15;101700.31;;;15.12;100.00
19236;BME280;9752;54.270;12.470;2022-08-05T18:53:19;101697.88;;;14.69;100.00
19236;BME280;9752;54.270;12.470;2022-08-05T18:58:22;101706.09;;;14.47;100.00
19236;BME280;9752;54.270;12.470;2022-08-05T19:03:24;101699.53;;;14.24;100.00
19236;BME280;9752;54.270;12.470;2022-08-05T19:08:26;101697.34;;;14.02;100.00
19236;BME280;9752;54.270;12.470;2022-08-05T19:13:29;101701.91;;;13.91;100.00
19236;BME280;9752;54.270;12.470;2022-08-05T19:18:31;101696.31;;;13.85;100.00
19236;BME280;9752;54.270;12.470;2022-08-05T19:23:32;101701.53;;;13.85;100.00
19236;BME280;9752;54.270;12.470;2022-08-05T19:28:38;101713.06;;;14.03;100.00
19236;BME280;9752;54.270;12.470;2022-08-05T19:33:41;101706.44;;;14.09;100.00
19236;BME280;9752;54.270;12.470;2022-08-05T19:38:43;101724.63;;;14.22;100.00
19236;BME280;9752;54.270;12.470;2022-08-05T19:43:46;101727.38;;;14.38;100.00
19236;BME280;9752;54.270;12.470;2022-08-05T19:48:48;101723.50;;;14.47;100.00
19236;BME280;9752;54.270;12.470;2022-08-05T19:53:50;101723.84;;;14.53;100.00
19236;BME280;9752;54.270;12.470;2022-08-05T19:58:53;101726.53;;;14.54;100.00
19236;BME280;9752;54.270;12.470;2022-08-05T20:03:55;101716.00;;;14.38;100.00
19236;BME280;9752;54.270;12.470;2022-08-05T20:08:56;101721.75;;;14.32;100.00
19236;BME280;9752;54.270;12.470;2022-08-05T20:13:59;101720.97;;;14.48;100.00
19236;BME280;9752;54.270;12.470;2022-08-05T20:19:01;101740.19;;;14.63;100.00
19236;BME280;9752;54.270;12.470;2022-08-05T20:24:03;101735.84;;;14.64;100.00
19236;BME280;9752;54.270;12.470;2022-08-05T20:29:07;101729.06;;;14.53;100.00
19236;BME280;9752;54.270;12.470;2022-08-05T20:34:09;101732.66;;;14.25;100.00
19236;BME280;9752;54.270;12.470;2022-08-05T20:39:11;101740.03;;;14.32;100.00
19236;BME280;9752;54.270;12.470;2022-08-05T20:44:15;101744.34;;;14.32;100.00
19236;BME280;9752;54.270;12.470;2022-08-05T20:49:18;101760.84;;;14.31;100.00
19236;BME280;9752;54.270;12.470;2022-08-05T20:54:20;101762.09;;;14.37;100.00
19236;BME280;9752;54.270;12.470;2022-08-05T20:59:23;101771.34;;;14.75;100.00
19236;BME280;9752;54.270;12.470;2022-08-05T21:04:25;101770.44;;;14.75;100.00
19236;BME280;9752;54.270;12.470;2022-08-05T21:09:27;101780.97;;;14.76;100.00
19236;BME280;9752;54.270;12.470;2022-08-05T21:14:30;101783.94;;;14.82;100.00
19236;BME280;9752;54.270;12.470;2022-08-05T21:19:32;101788.09;;;14.94;100.00
19236;BME280;9752;54.270;12.470;2022-08-05T21:24:34;101803.41;;;15.02;100.00
19236;BME280;9752;54.270;12.470;2022-08-05T21:29:37;101810.53;;;14.90;100.00
19236;BME280;9752;54.270;12.470;2022-08-05T21:34:39;101817.28;;;14.87;100.00
19236;BME280;9752;54.270;12.470;2022-08-05T21:39:41;101820.72;;;14.86;100.00
19236;BME280;9752;54.270;12.470;2022-08-05T21:44:44;101828.72;;;15.03;100.00
19236;BME280;9752;54.270;12.470;2022-08-05T21:49:46;101834.84;;;15.04;100.00
19236;BME280;9752;54.270;12.470;2022-08-05T21:54:48;101840.25;;;15.22;100.00
19236;BME280;9752;54.270;12.470;2022-08-05T21:59:51;101850.97;;;15.27;100.00
19236;BME280;9752;54.270;12.470;2022-08-05T22:04:53;101851.88;;;15.27;100.00
19236;BME280;9752;54.270;12.470;2022-08-05T22:09:57;101859.97;;;15.17;100.00
19236;BME280;9752;54.270;12.470;2022-08-05T22:15:00;101867.91;;;15.18;100.00
19236;BME280;9752;54.270;12.470;2022-08-05T22:20:03;101874.03;;;15.04;100.00
19236;BME280;9752;54.270;12.470;2022-08-05T22:25:06;101887.09;;;15.04;100.00
19236;BME280;9752;54.270;12.470;2022-08-05T22:30:32;101889.34;;;14.98;100.00
19236;BME280;9752;54.270;12.470;2022-08-05T22:35:37;101902.47;;;14.84;100.00
19236;BME280;9752;54.270;12.470;2022-08-05T22:40:38;101904.97;;;14.68;100.00
19236;BME280;9752;54.270;12.470;2022-08-05T22:45:41;101917.50;;;14.74;100.00
19236;BME280;9752;54.270;12.470;2022-08-05T22:50:43;101925.72;;;14.80;100.00
19236;BME280;9752;54.270;12.470;2022-08-05T22:55:45;101926.09;;;14.86;100.00
19236;BME280;9752;54.270;12.470;2022-08-05T23:00:51;101935.25;;;14.79;100.00
19236;BME280;9752;54.270;12.470;2022-08-05T23:05:52;101948.03;;;14.75;100.00
19236;BME280;9752;54.270;12.470;2022-08-05T23:10:55;101956.91;;;14.63;100.00
19236;BME280;9752;54.270;12.470;2022-08-05T23:15:58;101963.66;;;14.60;100.00
19236;BME280;9752;54.270;12.470;2022-08-05T23:21:00;101979.69;;;14.53;100.00
19236;BME280;9752;54.270;12.470;2022-08-05T23:26:02;101974.47;;;14.66;100.00
19236;BME280;9752;54.270;12.470;2022-08-05T23:31:05;101988.56;;;14.41;100.00
19236;BME280;9752;54.270;12.470;2022-08-05T23:36:07;101994.88;;;14.58;100.00
19236;BME280;9752;54.270;12.470;2022-08-05T23:41:09;102002.31;;;14.66;100.00
19236;BME280;9752;54.270;12.470;2022-08-05T23:46:12;102009.03;;;14.62;100.00
19236;BME280;9752;54.270;12.470;2022-08-05T23:51:14;102007.53;;;14.52;100.00
19236;BME280;9752;54.270;12.470;2022-08-05T23:56:16;102011.06;;;14.39;100.00
